Terminal Aerodrome Forecast
Issued by NWS

Home | Current Version | Previous Version | Text Only | Print | Product List | Glossary On
Versions: 1 2 3 4 5 6 7 8 9 10 11 12 13 14 15 16 17
000
FTUS42 KTAE 260520
TAFECP
TAF
KECP 260520Z 2606/2706 32004KT P6SM SKC
     FM260800 VRB03KT P6SM VCSH BKN040
     FM261500 04006KT P6SM VCTS SCT050CB BKN250
     FM262100 25004KT P6SM BKN100=

USA.gov is the U.S. government's official web portal to all federal, state and local government web resources and services.